createdAt,value
2022-11-01T00:00:20.827Z,11
2022-11-01T00:05:32.675Z,11
2022-11-01T00:10:44.679Z,11
2022-11-01T00:15:56.860Z,11
2022-11-01T00:21:08.747Z,11
2022-11-01T00:26:20.874Z,11
2022-11-01T00:31:32.702Z,10
2022-11-01T00:36:44.744Z,10
2022-11-01T00:41:56.854Z,10
2022-11-01T00:47:08.925Z,10
2022-11-01T00:52:20.861Z,10
2022-11-01T00:57:32.801Z,10
2022-11-01T01:02:44.717Z,10
2022-11-01T01:07:56.814Z,10
2022-11-01T01:13:08.743Z,10
2022-11-01T01:18:20.630Z,10
2022-11-01T01:23:32.507Z,10
2022-11-01T01:28:45.752Z,10
2022-11-01T01:33:57.139Z,9
2022-11-01T01:39:09.840Z,10
2022-11-01T01:44:21.473Z,10
2022-11-01T01:49:34.840Z,10
2022-11-01T01:54:52.121Z,10
2022-11-01T02:00:03.970Z,10
2022-11-01T02:05:15.921Z,9
2022-11-01T02:10:27.786Z,9
2022-11-01T02:15:40.074Z,9
2022-11-01T02:20:52.110Z,9
2022-11-01T02:26:03.985Z,9
2022-11-01T02:31:15.847Z,9
2022-11-01T02:36:27.602Z,9
2022-11-01T02:41:39.261Z,9
2022-11-01T02:46:51.144Z,9
2022-11-01T02:52:03.020Z,9
2022-11-01T02:57:14.791Z,9
2022-11-01T03:02:26.653Z,9
2022-11-01T03:07:38.450Z,9
2022-11-01T03:12:50.222Z,9
2022-11-01T03:18:02.024Z,9
2022-11-01T03:23:13.790Z,9
2022-11-01T03:28:25.469Z,9
2022-11-01T03:33:37.284Z,8
2022-11-01T03:38:49.037Z,9
2022-11-01T03:44:00.850Z,9
2022-11-01T03:49:12.683Z,9
2022-11-01T03:54:24.244Z,9
2022-11-01T03:59:36.240Z,9
2022-11-01T04:04:48.136Z,9
2022-11-01T04:10:00.020Z,9
2022-11-01T04:15:11.746Z,9
2022-11-01T04:20:23.424Z,9
2022-11-01T04:25:35.210Z,8
2022-11-01T04:30:46.992Z,8
2022-11-01T04:35:59.046Z,8
2022-11-01T04:41:10.879Z,8
2022-11-01T04:46:22.409Z,8
2022-11-01T04:51:34.608Z,8
2022-11-01T04:56:46.330Z,8
2022-11-01T05:01:58.451Z,8
2022-11-01T05:07:10.282Z,8
2022-11-01T05:12:21.980Z,8
2022-11-01T05:17:33.819Z,8
2022-11-01T05:22:45.726Z,8
2022-11-01T05:27:57.781Z,8
2022-11-01T05:33:09.691Z,8
2022-11-01T05:38:21.456Z,8
2022-11-01T05:43:33.181Z,8
2022-11-01T05:48:44.828Z,7
2022-11-01T05:53:56.633Z,7
2022-11-01T05:59:08.279Z,7
2022-11-01T06:04:20.009Z,7
2022-11-01T06:09:31.926Z,7
2022-11-01T06:14:43.792Z,7
2022-11-01T06:19:55.504Z,7
2022-11-01T06:25:07.335Z,7
2022-11-01T06:30:19.052Z,7
2022-11-01T06:35:30.722Z,8
2022-11-01T06:40:42.537Z,8
2022-11-01T06:45:54.363Z,7
2022-11-01T06:51:05.996Z,8
2022-11-01T06:56:17.781Z,8
2022-11-01T07:01:30.234Z,8
2022-11-01T07:06:42.108Z,8
2022-11-01T07:11:53.932Z,8
2022-11-01T07:17:05.609Z,8
2022-11-01T07:22:17.251Z,9
2022-11-01T07:27:29.057Z,9
2022-11-01T07:32:40.758Z,9
2022-11-01T07:37:52.552Z,9
2022-11-01T07:43:04.587Z,9
2022-11-01T07:48:16.153Z,9
2022-11-01T07:53:28.095Z,10
2022-11-01T07:58:40.127Z,10
2022-11-01T08:03:51.755Z,10
2022-11-01T08:09:03.600Z,10
2022-11-01T08:14:15.693Z,11
2022-11-01T08:19:27.551Z,11
2022-11-01T08:24:39.573Z,11
2022-11-01T08:29:51.569Z,11
2022-11-01T08:35:03.389Z,12
2022-11-01T08:40:15.353Z,12
2022-11-01T08:45:27.575Z,12
2022-11-01T08:50:39.429Z,12
2022-11-01T08:55:51.577Z,13
2022-11-01T09:01:03.903Z,13
2022-11-01T09:06:15.978Z,13
2022-11-01T09:11:27.904Z,14
2022-11-01T09:16:40.235Z,14
2022-11-01T09:21:52.288Z,14
2022-11-01T09:27:04.346Z,15
2022-11-01T09:32:16.517Z,14
2022-11-01T09:37:28.640Z,15
2022-11-01T09:42:40.892Z,15
2022-11-01T09:47:53.180Z,16
2022-11-01T09:53:05.213Z,16
2022-11-01T09:58:17.349Z,16
2022-11-01T10:03:29.286Z,16
2022-11-01T10:08:41.154Z,16
2022-11-01T10:13:53.183Z,16
2022-11-01T10:19:05.336Z,16
2022-11-01T10:24:17.414Z,17
2022-11-01T10:29:29.786Z,17
2022-11-01T10:34:42.727Z,18
2022-11-01T10:40:06.171Z,18
2022-11-01T10:45:19.657Z,19
2022-11-01T10:50:32.233Z,19
2022-11-01T10:55:44.749Z,20
2022-11-01T11:00:57.339Z,20
2022-11-01T11:06:19.808Z,20
2022-11-01T11:11:33.686Z,20
2022-11-01T11:16:45.041Z,19
2022-11-01T11:21:57.313Z,20
2022-11-01T11:27:09.780Z,20
2022-11-01T11:32:22.500Z,21
2022-11-01T11:37:36.119Z,22
2022-11-01T11:42:48.914Z,22
2022-11-01T11:53:11.016Z,21
2022-11-01T11:58:24.242Z,22
2022-11-01T12:03:36.631Z,22
2022-11-01T12:13:57.755Z,21
2022-11-01T12:19:09.517Z,20
2022-11-01T12:24:22.192Z,21
2022-11-01T12:29:35.016Z,21
2022-11-01T12:34:47.391Z,21
2022-11-01T12:39:59.905Z,21
2022-11-01T12:45:12.434Z,21
2022-11-01T12:50:24.718Z,22
2022-11-01T12:55:37.244Z,22
2022-11-01T13:00:49.778Z,22
2022-11-01T13:06:02.066Z,21
2022-11-01T13:16:23.862Z,21
2022-11-01T13:21:36.187Z,21
2022-11-01T13:26:53.550Z,21
2022-11-01T13:32:08.389Z,21
2022-11-01T13:42:30.786Z,21
2022-11-01T13:47:43.652Z,21
2022-11-01T13:52:55.496Z,20
2022-11-01T13:58:07.676Z,20
2022-11-01T14:03:19.962Z,20
2022-11-01T14:08:32.228Z,20
2022-11-01T14:13:44.328Z,20
2022-11-01T14:18:56.900Z,20
2022-11-01T14:24:08.971Z,20
2022-11-01T14:29:20.972Z,20
2022-11-01T14:34:33.173Z,19
2022-11-01T14:39:45.238Z,20
2022-11-01T14:44:57.362Z,19
2022-11-01T14:50:14.053Z,19
2022-11-01T14:55:29.625Z,19
2022-11-01T15:00:41.763Z,19
2022-11-01T15:05:53.790Z,19
2022-11-01T15:11:19.945Z,19
2022-11-01T15:16:31.840Z,19
2022-11-01T15:21:48.112Z,19
2022-11-01T15:27:00.568Z,18
2022-11-01T15:32:12.524Z,18
2022-11-01T15:37:24.574Z,18
2022-11-01T15:42:36.725Z,18
2022-11-01T15:47:48.553Z,18
2022-11-01T15:53:04.905Z,18
2022-11-01T15:58:17.992Z,18
2022-11-01T16:03:30.097Z,18
2022-11-01T16:08:42.209Z,18
2022-11-01T16:13:54.356Z,17
2022-11-01T16:19:06.434Z,17
2022-11-01T16:24:18.413Z,17
2022-11-01T16:29:30.426Z,17
2022-11-01T16:34:42.329Z,17
2022-11-01T16:39:54.184Z,17
2022-11-01T16:45:06.167Z,17
2022-11-01T16:50:18.131Z,17
2022-11-01T16:55:37.204Z,17
2022-11-01T17:00:51.355Z,17
2022-11-01T17:06:03.492Z,16
2022-11-01T17:11:15.807Z,16
2022-11-01T17:16:28.062Z,16
2022-11-01T17:21:40.302Z,16
2022-11-01T17:26:52.448Z,16
2022-11-01T17:32:04.488Z,16
2022-11-01T17:37:16.490Z,16
2022-11-01T17:42:28.636Z,16
2022-11-01T17:47:41.080Z,16
2022-11-01T17:52:53.102Z,16
2022-11-01T17:58:06.391Z,16
2022-11-01T18:03:18.352Z,16
2022-11-01T18:08:30.875Z,16
2022-11-01T18:13:43.222Z,16
2022-11-01T18:18:55.294Z,16
2022-11-01T18:24:22.499Z,16
2022-11-01T18:29:40.479Z,16
2022-11-01T18:34:50.546Z,16
2022-11-01T18:40:02.509Z,16
2022-11-01T18:45:15.000Z,16
2022-11-01T18:50:27.008Z,16
2022-11-01T18:55:39.344Z,16
2022-11-01T19:00:51.945Z,15
2022-11-01T19:06:04.016Z,15
2022-11-01T19:11:16.207Z,15
2022-11-01T19:16:28.474Z,15
2022-11-01T19:21:40.577Z,15
2022-11-01T19:26:52.716Z,15
2022-11-01T19:32:04.870Z,15
2022-11-01T19:37:16.856Z,15
2022-11-01T19:42:32.176Z,15
2022-11-01T19:47:43.634Z,14
2022-11-01T19:52:55.827Z,15
2022-11-01T19:58:07.818Z,15
2022-11-01T20:03:23.660Z,15
2022-11-01T20:08:37.436Z,15
2022-11-01T20:13:49.376Z,14
2022-11-01T20:19:02.190Z,14
2022-11-01T20:24:14.617Z,14
2022-11-01T20:29:37.985Z,14
2022-11-01T20:34:54.689Z,14
2022-11-01T20:40:06.437Z,14
2022-11-01T20:45:18.736Z,14
2022-11-01T20:50:30.650Z,13
2022-11-01T20:55:42.584Z,14
2022-11-01T21:00:55.188Z,14
2022-11-01T21:06:07.459Z,14
2022-11-01T21:11:20.306Z,14
2022-11-01T21:16:32.118Z,13
2022-11-01T21:21:47.750Z,13
2022-11-01T21:27:00.816Z,13
2022-11-01T21:32:15.766Z,13
2022-11-01T21:37:27.282Z,13
2022-11-01T21:42:39.276Z,13
2022-11-01T21:47:51.516Z,13
2022-11-01T21:53:05.140Z,13
2022-11-01T21:58:17.716Z,13
2022-11-01T22:03:29.647Z,13
2022-11-01T22:08:41.758Z,13
2022-11-01T22:13:53.766Z,13
2022-11-01T22:19:05.705Z,13
2022-11-01T22:24:17.781Z,13
2022-11-01T22:29:29.940Z,13
2022-11-01T22:34:41.702Z,13
2022-11-01T22:39:54.517Z,13
2022-11-01T22:45:06.282Z,13
2022-11-01T22:50:18.250Z,13
2022-11-01T22:55:30.206Z,13
2022-11-01T23:00:42.200Z,13
2022-11-01T23:05:54.260Z,13
2022-11-01T23:11:06.157Z,13
2022-11-01T23:16:17.934Z,13
2022-11-01T23:21:30.050Z,13
2022-11-01T23:26:41.865Z,13
2022-11-01T23:31:53.741Z,13
2022-11-01T23:37:05.711Z,14
2022-11-01T23:42:17.783Z,14
2022-11-01T23:47:29.670Z,14
2022-11-01T23:52:41.721Z,14
2022-11-01T23:57:53.800Z,13
